Madison, SD

4:51 AM CDT on July 24, 2017 (GMT -0500)
Madison Municipal

Weather History for KMDS - January, 2012

Change the Weather History Date:

Monday, January 16, 2012

  Actual Average Record
Temperature  
Mean Temperature 21 °F -  
Max Temperature 32 °F 24 °F 37 °F (2013)
Min Temperature 10 °F 3 °F -11 °F (2016)
Degree Days  
Heating Degree Days 44    
Moisture  
Dew Point 17 °F    
Average Humidity 93    
Maximum Humidity 100    
Minimum Humidity 74    
Precipitation  
Precipitation 0.73 in - - ()
Sea Level Pressure  
Sea Level Pressure 29.85 in    
Wind  
Wind Speed 18 mph (North)    
Max Wind Speed 25 mph    
Max Gust Speed 33 mph    
Visibility 9 miles    
Events Snow    
Averages and records for this station are not official NWS values.
T = Trace of Precipitation, MM = Missing Value Source: NWS Daily Summary

Daily Weather History Graph

Daily Weather History Graph

Search for Another Location

Airport or City:

Trip Planner

Search our weather history database for the weather conditions in past years. The results will help you decide how hot, cold, wet, or windy it might be!

Date:

Astronomy

Jan. 16, 2012 Rise Set
Actual Time 7:59 AM CST 5:16 PM CST
Civil Twilight 7:27 AM CST 5:48 PM CST
Nautical Twilight 6:51 AM CST 6:24 PM CST
Astronomical Twilight 6:17 AM CST 6:59 PM CST
Moon 1:05 AM CST (1/16) 11:34 AM CST (1/16)
Length of Visible Light 10h 21m
Length of Day
9h 17m
Last Quarter, 46% of the Moon is Illuminated
Jan 16
Last Quarter
Jan 23
New
Jan 30
First Quarter
Feb 7
Full
Feb 14
Last Quarter

Hourly Weather History & Observations

Time (CST) Temp. Windchill Dew Point Humidity Pressure Visibility Wind Dir Wind Speed Gust Speed Precip Events Conditions
12:10 AM 32.0 °F 20.8 °F 28.4 °F 87% 29.70 in 10.0 mi North 17.3 mph 21.9 mph N/A   Clear
12:30 AM 32.0 °F 22.5 °F 30.2 °F 93% 29.74 in 10.0 mi NNW 12.7 mph 21.9 mph N/A   Clear
12:50 AM 32.0 °F 22.1 °F 30.2 °F 93% 29.75 in 10.0 mi North 13.8 mph - N/A   Clear
1:10 AM 30.2 °F 20.8 °F 30.2 °F 100% 29.78 in 10.0 mi NNW 11.5 mph - N/A   Clear
1:30 AM 28.4 °F 16.6 °F 28.4 °F 100% 29.78 in 10.0 mi North 16.1 mph - N/A   Clear
1:50 AM 28.4 °F 15.8 °F 28.4 °F 100% 29.78 in 10.0 mi North 18.4 mph - N/A   Clear
2:10 AM 28.4 °F 14.7 °F 28.4 °F 100% 29.78 in 10.0 mi North 21.9 mph 27.6 mph N/A   Clear
2:30 AM 26.6 °F 13.1 °F 26.6 °F 100% 29.77 in 10.0 mi North 19.6 mph 28.8 mph N/A   Clear
2:50 AM 26.6 °F 13.4 °F 26.6 °F 100% 29.78 in 10.0 mi North 18.4 mph - N/A   Clear
3:10 AM 26.6 °F 13.4 °F 26.6 °F 100% 29.78 in 10.0 mi North 18.4 mph 24.2 mph N/A   Clear
3:30 AM 26.6 °F 12.0 °F 26.6 °F 100% 29.78 in 10.0 mi North 23.0 mph 33.4 mph N/A   Clear
3:50 AM 24.8 °F 10.3 °F 24.8 °F 100% 29.78 in 10.0 mi North 20.7 mph 28.8 mph N/A   Clear
4:10 AM 23.0 °F 8.7 °F 23.0 °F 100% 29.78 in 10.0 mi North 18.4 mph 28.8 mph N/A   Clear
4:30 AM 23.0 °F 9.2 °F 23.0 °F 100% 29.77 in 10.0 mi North 17.3 mph 25.3 mph N/A   Clear
4:50 AM 21.2 °F 7.3 °F 21.2 °F 100% 29.78 in 10.0 mi North 16.1 mph 24.2 mph N/A   Clear
5:10 AM 19.4 °F 5.5 °F 19.4 °F 100% 29.78 in 10.0 mi North 15.0 mph 20.7 mph N/A   Clear
5:30 AM 19.4 °F 3.6 °F 19.4 °F 100% 29.79 in 10.0 mi North 19.6 mph 23.0 mph N/A   Clear
5:50 AM 19.4 °F 6.6 °F 19.4 °F 100% 29.80 in 10.0 mi North 12.7 mph - N/A   Clear
6:10 AM 19.4 °F 5.5 °F 19.4 °F 100% 29.81 in 10.0 mi North 15.0 mph 20.7 mph N/A   Clear
6:30 AM 17.6 °F 1.7 °F 17.6 °F 100% 29.82 in 10.0 mi North 18.4 mph - N/A   Clear
6:50 AM 17.6 °F 6.4 °F 17.6 °F 100% 29.84 in 10.0 mi NNE 9.2 mph 21.9 mph N/A   Clear
7:10 AM 15.8 °F 1.4 °F 15.8 °F 100% 29.84 in 10.0 mi North 13.8 mph 18.4 mph N/A   Clear
7:30 AM 15.8 °F 0.3 °F 15.8 °F 100% 29.84 in 10.0 mi North 16.1 mph - N/A   Clear
7:50 AM 14.0 °F -3.9 °F 14.0 °F 100% 29.84 in 10.0 mi North 20.7 mph 24.2 mph N/A   Clear
8:30 AM 14.0 °F -3.9 °F 14.0 °F 100% 29.85 in 10.0 mi North 20.7 mph 26.5 mph N/A   Clear
8:50 AM 14.0 °F -4.3 °F 14.0 °F 100% 29.85 in 10.0 mi North 21.9 mph 27.6 mph N/A   Clear
9:10 AM 14.0 °F -4.3 °F 14.0 °F 100% 29.86 in 10.0 mi NNE 21.9 mph 27.6 mph N/A   Clear
9:30 AM 14.0 °F -3.9 °F 14.0 °F 100% 29.85 in 10.0 mi NNE 20.7 mph 28.8 mph N/A   Clear
9:50 AM 14.0 °F -4.3 °F 12.2 °F 93% 29.85 in 10.0 mi NNE 21.9 mph 29.9 mph N/A   Clear
10:10 AM 14.0 °F -3.9 °F 12.2 °F 93% 29.87 in 10.0 mi NNE 20.7 mph - N/A   Clear
10:30 AM 14.0 °F -3.9 °F 10.4 °F 86% 29.88 in 10.0 mi NNE 20.7 mph - N/A   Clear
10:50 AM 15.8 °F -0.6 °F 10.4 °F 79% 29.88 in 10.0 mi NNE 18.4 mph 23.0 mph N/A   Clear
11:10 AM 15.8 °F -0.2 °F 10.4 °F 79% 29.89 in 10.0 mi North 17.3 mph 24.2 mph N/A   Clear
11:30 AM 15.8 °F 0.3 °F 10.4 °F 79% 29.88 in 10.0 mi North 16.1 mph - N/A   Clear
11:50 AM 15.8 °F 0.9 °F 10.4 °F 79% 29.89 in 10.0 mi North 15.0 mph - N/A   Clear
12:10 PM 15.8 °F -0.6 °F 10.4 °F 79% 29.87 in 10.0 mi North 18.4 mph - N/A   Clear
12:30 PM 17.6 °F 0.5 °F 12.2 °F 79% 29.86 in 10.0 mi North 21.9 mph 25.3 mph N/A   Clear
12:50 PM 17.6 °F 1.3 °F 12.2 °F 79% 29.85 in 10.0 mi North 19.6 mph 26.5 mph N/A   Clear
1:10 PM 17.6 °F 2.2 °F 12.2 °F 79% 29.86 in 10.0 mi North 17.3 mph - N/A   Clear
1:30 PM 19.4 °F 4.5 °F 12.2 °F 74% 29.87 in 10.0 mi North 17.3 mph - N/A   Clear
1:50 PM 19.4 °F 2.8 °F 12.2 °F 74% 29.86 in 10.0 mi North 21.9 mph - N/A   Clear
2:10 PM 19.4 °F 3.6 °F 12.2 °F 74% 29.86 in 10.0 mi North 19.6 mph - N/A   Clear
2:30 PM 17.6 °F 1.3 °F 12.2 °F 79% 29.86 in 10.0 mi North 19.6 mph 24.2 mph N/A   Clear
2:50 PM 17.6 °F 2.2 °F 12.2 °F 79% 29.87 in 10.0 mi North 17.3 mph - N/A   Clear
3:10 PM 17.6 °F 2.2 °F 14.0 °F 86% 29.88 in 10.0 mi North 17.3 mph 24.2 mph N/A   Clear
3:30 PM 17.6 °F 0.9 °F 14.0 °F 86% 29.88 in 10.0 mi North 20.7 mph 25.3 mph N/A   Clear
3:50 PM 17.6 °F 1.7 °F 14.0 °F 86% 29.88 in 10.0 mi North 18.4 mph 26.5 mph N/A   Clear
4:10 PM 17.6 °F 0.9 °F 14.0 °F 86% 29.89 in 10.0 mi North 20.7 mph 26.5 mph N/A   Clear
4:30 PM 17.6 °F 1.7 °F 14.0 °F 86% 29.90 in 10.0 mi North 18.4 mph - N/A   Clear
4:50 PM 15.8 °F -1.1 °F 14.0 °F 93% 29.90 in 10.0 mi North 19.6 mph 26.5 mph N/A   Clear
5:10 PM 15.8 °F -1.5 °F 14.0 °F 93% 29.90 in 10.0 mi North 20.7 mph 26.5 mph N/A   Clear
5:30 PM 15.8 °F -1.5 °F 14.0 °F 93% 29.91 in 10.0 mi North 20.7 mph 25.3 mph N/A   Mostly Cloudy
5:50 PM 14.0 °F -3.9 °F 14.0 °F 100% 29.91 in 10.0 mi NNE 20.7 mph 25.3 mph N/A   Overcast
6:30 PM 14.0 °F -2.0 °F 14.0 °F 100% 29.93 in 10.0 mi NNE 16.1 mph 24.2 mph N/A   Overcast
6:50 PM 14.0 °F -4.7 °F 14.0 °F 100% 29.94 in 5.0 mi North 23.0 mph 26.5 mph N/A Snow Light Snow
7:00 PM 14.0 °F -4.3 °F 14.0 °F 100% 29.94 in 2.0 mi North 21.9 mph 26.5 mph 0.02 in Snow Light Snow
7:10 PM 14.0 °F -4.7 °F 14.0 °F 100% 29.95 in 1.2 mi North 23.0 mph 27.6 mph 0.03 in Snow Light Snow
7:30 PM 12.2 °F -6.7 °F 12.2 °F 100% 29.95 in 1.2 mi NNE 21.9 mph 29.9 mph 0.11 in Snow Light Snow
7:50 PM 10.4 °F -9.9 °F 10.4 °F 100% 29.96 in 1.5 mi North 24.2 mph 29.9 mph 0.24 in Snow Light Snow
8:00 PM 10.4 °F -10.3 °F 10.4 °F 100% 29.96 in 1.5 mi North 25.3 mph 29.9 mph 0.29 in Snow Light Snow
8:10 PM 10.4 °F -9.1 °F 10.4 °F 100% 29.96 in 1.2 mi North 21.9 mph 31.1 mph 0.07 in Snow Light Snow
8:30 PM 10.4 °F -9.5 °F 10.4 °F 100% 29.96 in 1.5 mi North 23.0 mph 29.9 mph 0.22 in Snow Light Snow
8:50 PM 10.4 °F -8.2 °F 10.4 °F 100% 29.98 in 1.2 mi North 19.6 mph 27.6 mph 0.49 in Snow Light Snow
9:00 PM 10.4 °F -8.2 °F 10.4 °F 100% 29.99 in 1.2 mi North 19.6 mph 25.3 mph 0.62 in Snow Light Snow
9:10 PM 10.4 °F -8.2 °F 10.4 °F 100% 30.00 in 1.0 mi North 19.6 mph 28.8 mph 0.13 in Snow Light Snow
9:30 PM 10.4 °F -7.7 °F 10.4 °F 100% 30.00 in 1.8 mi North 18.4 mph 24.2 mph 0.30 in Snow Light Snow
9:50 PM 10.4 °F -6.6 °F 10.4 °F 100% 30.00 in 1.2 mi North 16.1 mph 26.5 mph 0.47 in Snow Light Snow
10:00 PM 10.4 °F -8.6 °F 10.4 °F 100% 30.00 in 1.0 mi North 20.7 mph - 0.64 in Snow Light Snow
10:10 PM 10.4 °F -8.6 °F 10.4 °F 100% 30.01 in 1.0 mi North 20.7 mph 25.3 mph 0.11 in Snow Light Snow
10:30 PM 10.4 °F -9.1 °F 10.4 °F 100% 30.01 in 4.0 mi North 21.9 mph - 0.22 in Snow Light Snow
10:50 PM 10.4 °F -8.6 °F 10.4 °F 100% 30.01 in 9.0 mi North 20.7 mph 26.5 mph 0.27 in Snow Light Snow
11:00 PM 10.4 °F -9.1 °F 10.4 °F 100% 30.02 in 8.0 mi North 21.9 mph 27.6 mph 0.29 in Snow Light Snow
11:10 PM 10.4 °F -7.7 °F 10.4 °F 100% 30.02 in 5.0 mi North 18.4 mph - 0.02 in Snow Light Snow
11:30 PM 10.4 °F -9.1 °F 10.4 °F 100% 30.03 in 4.0 mi North 21.9 mph 25.3 mph 0.06 in Snow Light Snow
11:50 PM 8.6 °F -11.9 °F 8.6 °F 100% 30.02 in 3.0 mi North 23.0 mph 29.9 mph 0.10 in Snow Light Snow